Time;durP1;ratioP1;P1;durP2;ratioP2;P2;SDS_P1;SDS_P2;PMS_P1;PMS_P2;Temp;Humidity;BMP_temperature;BMP_pressure;BME280_temperature;BME280_humidity;BME280_pressure;Samples;Min_cycle;Max_cycle;Signal;HPM_P1;HPM_P2
2023/11/28 00:00:28;;;;;;;18.85;10.80;;;;;;;0.53;100.00;99155.97;5045211;28;20061;-67
2023/11/28 00:02:53;;;;;;;20.38;11.57;;;;;;;0.58;100.00;99163.22;5043228;28;20089;-67
2023/11/28 00:05:19;;;;;;;21.52;11.60;;;;;;;0.57;100.00;99174.38;5044321;28;20403;-67
2023/11/28 00:07:44;;;;;;;16.35;9.32;;;;;;;0.61;100.00;99180.81;5049553;28;20036;-67
2023/11/28 00:10:10;;;;;;;17.58;9.90;;;;;;;0.65;100.00;99191.59;5046401;28;20040;-67
2023/11/28 00:12:36;;;;;;;19.38;10.05;;;;;;;0.60;100.00;99186.06;5043603;28;20033;-67
2023/11/28 00:15:01;;;;;;;20.02;10.95;;;;;;;0.56;100.00;99188.84;5022048;28;20064;-67
2023/11/28 00:17:27;;;;;;;17.05;9.65;;;;;;;0.61;100.00;99193.59;5045886;28;20075;-67
2023/11/28 00:19:52;;;;;;;20.00;11.75;;;;;;;0.58;100.00;99199.75;5043072;28;20161;-67
2023/11/28 00:22:18;;;;;;;16.05;9.80;;;;;;;0.60;100.00;99202.16;5028127;28;20044;-67
2023/11/28 00:24:43;;;;;;;16.73;10.13;;;;;;;0.58;100.00;99215.06;5041214;28;20151;-67
2023/11/28 00:27:10;;;;;;;18.80;10.50;;;;;;;0.56;100.00;99221.22;5034598;28;20033;-67
2023/11/28 00:29:35;;;;;;;16.10;9.90;;;;;;;0.56;100.00;99226.31;5061640;28;20068;-67
2023/11/28 00:32:01;;;;;;;16.13;10.43;;;;;;;0.58;100.00;99227.81;5050176;28;20076;-67
2023/11/28 00:34:27;;;;;;;16.50;10.70;;;;;;;0.67;100.00;99238.19;5049412;28;20029;-68
2023/11/28 00:36:52;;;;;;;17.13;10.48;;;;;;;0.68;100.00;99229.56;5030053;28;20040;-67
2023/11/28 00:39:18;;;;;;;18.85;11.13;;;;;;;0.66;100.00;99239.94;5044633;28;20029;-67
2023/11/28 00:41:45;;;;;;;22.30;11.55;;;;;;;0.74;100.00;99236.72;5042820;28;20041;-67
2023/11/28 00:44:10;;;;;;;21.52;11.48;;;;;;;0.67;100.00;99248.38;5045995;28;20025;-67
2023/11/28 00:46:40;;;;;;;24.27;10.65;;;;;;;0.63;100.00;99252.13;5040467;28;20731;-67
2023/11/28 00:49:07;;;;;;;27.52;13.32;;;;;;;0.70;100.00;99258.34;5044648;28;20515;-67
2023/11/28 00:51:32;;;;;;;23.50;12.85;;;;;;;0.69;100.00;99259.28;5028019;28;20049;-67
2023/11/28 00:53:58;;;;;;;17.52;9.90;;;;;;;0.64;100.00;99263.94;5039705;28;20114;-67
2023/11/28 00:56:24;;;;;;;25.70;12.88;;;;;;;0.69;100.00;99272.81;5041234;28;20608;-67
2023/11/28 00:58:50;;;;;;;20.88;11.35;;;;;;;0.61;100.00;99271.88;5046434;28;20037;-67
2023/11/28 01:01:18;;;;;;;49.63;20.00;;;;;;;0.68;100.00;99273.78;5044452;28;20510;-67
2023/11/28 01:03:44;;;;;;;25.52;12.10;;;;;;;0.71;100.00;99286.25;5028322;28;20048;-67
2023/11/28 01:06:09;;;;;;;37.03;17.27;;;;;;;0.69;100.00;99293.25;5046070;28;20045;-67
2023/11/28 01:08:36;;;;;;;26.65;12.35;;;;;;;0.69;100.00;99295.00;5039946;28;20093;-67
2023/11/28 01:11:02;;;;;;;23.25;11.18;;;;;;;0.65;100.00;99307.19;5031555;28;20071;-67
2023/11/28 01:13:28;;;;;;;14.43;8.80;;;;;;;0.73;100.00;99314.19;5028825;28;20511;-67
2023/11/28 01:15:54;;;;;;;17.90;8.73;;;;;;;0.70;100.00;99311.94;5047447;28;20060;-67
2023/11/28 01:18:20;;;;;;;17.38;9.50;;;;;;;0.66;100.00;99324.13;5046311;28;20120;-67
2023/11/28 01:20:46;;;;;;;16.77;9.13;;;;;;;0.73;100.00;99324.41;5044369;28;20041;-67
2023/11/28 01:23:12;;;;;;;19.17;9.68;;;;;;;0.73;100.00;99332.06;5046553;28;20052;-67
2023/11/28 01:25:37;;;;;;;23.98;10.52;;;;;;;0.78;100.00;99342.69;5044668;28;20049;-67
2023/11/28 01:28:03;;;;;;;15.50;8.73;;;;;;;0.81;100.00;99341.63;5043128;28;20064;-67
2023/11/28 01:30:29;;;;;;;23.90;11.02;;;;;;;0.79;100.00;99349.41;5045065;28;20053;-67
2023/11/28 01:32:55;;;;;;;14.18;7.90;;;;;;;0.84;100.00;99359.25;5050438;28;20033;-67
2023/11/28 01:35:20;;;;;;;34.78;15.07;;;;;;;0.76;100.00;99365.78;5051495;28;20041;-68
2023/11/28 01:37:46;;;;;;;33.75;13.52;;;;;;;0.74;100.00;99371.97;5046158;28;20033;-67
2023/11/28 01:40:12;;;;;;;36.88;13.45;;;;;;;0.85;100.00;99377.00;5027460;28;20045;-67
2023/11/28 01:42:38;;;;;;;12.05;6.95;;;;;;;0.88;100.00;99375.91;5037460;28;20041;-67
2023/11/28 01:45:05;;;;;;;25.02;12.05;;;;;;;0.75;100.00;99373.56;5037109;28;20034;-67
2023/11/28 01:47:33;;;;;;;23.10;12.63;;;;;;;0.77;100.00;99384.47;5044510;28;20040;-67
2023/11/28 01:50:00;;;;;;;8.48;6.32;;;;;;;0.82;100.00;99384.88;5036433;28;20075;-67
2023/11/28 01:52:27;;;;;;;7.72;5.63;;;;;;;0.87;100.00;99404.94;5033906;28;20028;-67
2023/11/28 01:54:53;;;;;;;9.23;6.22;;;;;;;0.80;100.00;99408.94;5035380;28;20487;-67
2023/11/28 01:57:19;;;;;;;8.02;5.68;;;;;;;0.75;100.00;99427.16;5037219;28;20040;-67
2023/11/28 01:59:46;;;;;;;9.10;6.85;;;;;;;0.78;100.00;99422.63;5031970;28;20032;-67
2023/11/28 02:02:12;;;;;;;7.05;5.82;;;;;;;0.75;100.00;99427.16;5034612;28;20105;-67
2023/11/28 02:04:38;;;;;;;11.55;6.47;;;;;;;0.75;100.00;99434.81;5035770;28;20028;-67
2023/11/28 02:07:03;;;;;;;9.45;6.43;;;;;;;0.72;100.00;99432.53;5038709;28;20108;-67
2023/11/28 02:09:29;;;;;;;9.38;7.40;;;;;;;0.69;100.00;99445.53;5048226;28;20946;-67
2023/11/28 02:11:57;;;;;;;11.07;7.95;;;;;;;0.69;100.00;99454.00;5046785;28;20044;-67
2023/11/28 02:14:22;;;;;;;9.88;7.43;;;;;;;0.74;100.00;99461.28;5029022;28;20478;-67
2023/11/28 02:16:48;;;;;;;11.73;7.57;;;;;;;0.72;100.00;99463.97;5045223;28;20037;-67
2023/11/28 02:19:15;;;;;;;9.18;6.78;;;;;;;0.73;100.00;99469.84;5030131;28;20041;-67
2023/11/28 02:21:40;;;;;;;9.32;6.95;;;;;;;0.69;100.00;99465.94;5041752;28;20418;-67
2023/11/28 02:24:11;;;;;;;10.60;7.10;;;;;;;0.64;100.00;99476.53;5046027;28;20021;-67
2023/11/28 02:26:36;;;;;;;9.48;7.00;;;;;;;0.72;100.00;99475.91;5046841;28;20037;-67
2023/11/28 02:29:01;;;;;;;11.73;8.15;;;;;;;0.64;100.00;99468.88;5044586;28;20094;-67
2023/11/28 02:31:27;;;;;;;9.48;7.30;;;;;;;0.64;100.00;99486.75;5042633;28;20037;-68
2023/11/28 02:33:53;;;;;;;10.77;7.60;;;;;;;0.58;100.00;99477.84;5028533;28;20049;-67
2023/11/28 02:36:22;;;;;;;10.73;7.95;;;;;;;0.58;100.00;99489.78;5045965;28;20037;-67
2023/11/28 02:38:48;;;;;;;11.82;7.57;;;;;;;0.59;100.00;99486.31;5036009;28;20042;-67
2023/11/28 02:41:14;;;;;;;11.73;8.35;;;;;;;0.58;100.00;99488.06;5034130;28;20053;-67
2023/11/28 02:43:40;;;;;;;9.77;6.68;;;;;;;0.48;100.00;99489.69;5019364;28;20038;-66
2023/11/28 02:46:05;;;;;;;11.98;7.90;;;;;;;0.50;100.00;99492.94;5044776;28;20116;-66
2023/11/28 02:48:31;;;;;;;10.82;7.97;;;;;;;0.51;100.00;99493.75;5038547;28;20040;-67
2023/11/28 02:50:56;;;;;;;11.10;7.70;;;;;;;0.63;100.00;99499.63;5025728;28;20048;-67
2023/11/28 02:53:22;;;;;;;10.90;7.80;;;;;;;0.61;100.00;99512.50;5039394;28;20102;-67
2023/11/28 02:55:47;;;;;;;13.90;8.02;;;;;;;0.66;100.00;99518.03;5040763;28;20087;-67
2023/11/28 02:58:13;;;;;;;10.25;7.50;;;;;;;0.68;100.00;99515.34;5032467;28;20025;-67
2023/11/28 03:00:38;;;;;;;10.07;7.43;;;;;;;0.65;100.00;99523.28;5031017;28;20040;-67
2023/11/28 03:03:04;;;;;;;13.65;8.68;;;;;;;0.65;100.00;99536.03;5044614;28;20037;-66
2023/11/28 03:05:31;;;;;;;13.88;9.18;;;;;;;0.59;100.00;99529.66;5041650;28;20051;-67
2023/11/28 03:07:56;;;;;;;14.18;9.80;;;;;;;0.69;100.00;99539.94;5043639;28;20021;-67
2023/11/28 03:10:22;;;;;;;12.88;9.00;;;;;;;0.75;100.00;99545.38;5057738;28;20115;-67
2023/11/28 03:12:48;;;;;;;15.38;10.52;;;;;;;0.73;100.00;99547.22;5043686;28;21148;-67
2023/11/28 03:15:13;;;;;;;15.43;10.48;;;;;;;0.79;100.00;99553.56;5039504;28;20049;-67
2023/11/28 03:17:39;;;;;;;15.23;10.60;;;;;;;0.76;100.00;99561.50;5042260;28;20036;-67
2023/11/28 03:20:07;;;;;;;17.73;11.68;;;;;;;0.77;100.00;99566.47;5043883;28;20044;-66
2023/11/28 03:22:32;;;;;;;17.20;11.43;;;;;;;0.82;100.00;99570.41;5040052;28;20044;-66
2023/11/28 03:25:06;;;;;;;16.55;11.50;;;;;;;0.73;100.00;99579.59;5041291;28;20037;-67
2023/11/28 03:27:34;;;;;;;19.52;11.95;;;;;;;0.75;100.00;99570.06;5037371;28;20515;-66
2023/11/28 03:29:59;;;;;;;18.52;11.60;;;;;;;0.73;100.00;99585.50;5035667;28;20036;-67
2023/11/28 03:32:25;;;;;;;18.50;12.70;;;;;;;0.67;100.00;99591.09;5026109;28;20390;-67
2023/11/28 03:34:50;;;;;;;17.52;12.07;;;;;;;0.68;100.00;99591.91;5042584;28;20523;-67
2023/11/28 03:37:16;;;;;;;17.92;12.00;;;;;;;0.63;100.00;99599.13;5040930;28;20111;-67
2023/11/28 03:39:42;;;;;;;16.95;12.02;;;;;;;0.68;100.00;99597.00;5041239;28;20044;-66
2023/11/28 03:42:07;;;;;;;18.85;11.98;;;;;;;0.70;100.00;99603.63;5039875;28;20068;-66
2023/11/28 03:44:33;;;;;;;18.33;11.75;;;;;;;0.67;100.00;99600.50;5041353;28;20056;-67
2023/11/28 03:46:58;;;;;;;15.55;11.38;;;;;;;0.72;100.00;99606.06;5039320;28;20108;-67
2023/11/28 03:49:24;;;;;;;16.98;11.45;;;;;;;0.69;100.00;99612.19;5045555;28;20052;-66
2023/11/28 03:51:49;;;;;;;15.07;10.55;;;;;;;0.72;100.00;99621.38;5042584;28;20083;-67
2023/11/28 03:54:15;;;;;;;17.05;10.63;;;;;;;0.75;100.00;99627.03;5041647;28;20034;-66
2023/11/28 03:56:43;;;;;;;15.95;10.95;;;;;;;0.71;100.00;99629.94;5042750;28;20037;-66
2023/11/28 03:59:09;;;;;;;16.20;10.98;;;;;;;0.74;100.00;99627.16;5023352;28;20064;-66
2023/11/28 04:01:35;;;;;;;17.30;11.82;;;;;;;0.70;100.00;99647.00;5026555;28;20037;-66
2023/11/28 04:04:01;;;;;;;18.58;12.93;;;;;;;0.69;100.00;99642.81;5042033;28;20025;-66
2023/11/28 04:06:26;;;;;;;17.00;12.10;;;;;;;0.73;100.00;99638.28;5042457;28;20065;-67
2023/11/28 04:08:53;;;;;;;19.95;13.75;;;;;;;0.66;100.00;99649.91;5038923;28;20178;-67
2023/11/28 04:11:19;;;;;;;19.00;13.60;;;;;;;0.64;100.00;99657.69;5037970;28;20041;-67
2023/11/28 04:13:45;;;;;;;21.67;14.02;;;;;;;0.67;100.00;99661.75;5021035;28;20132;-67
2023/11/28 04:16:16;;;;;;;19.90;13.95;;;;;;;0.72;100.00;99675.75;5042139;28;20044;-67
2023/11/28 04:18:42;;;;;;;20.52;13.70;;;;;;;0.63;100.00;99681.59;5037422;28;20032;-67
2023/11/28 04:21:07;;;;;;;18.30;13.43;;;;;;;0.67;100.00;99677.06;5024880;28;20038;-67
2023/11/28 04:23:33;;;;;;;17.77;13.23;;;;;;;0.65;100.00;99681.47;5028156;28;21928;-67
2023/11/28 04:25:58;;;;;;;20.00;13.98;;;;;;;0.60;100.00;99675.91;5032776;28;20048;-67
2023/11/28 04:28:24;;;;;;;19.52;13.93;;;;;;;0.63;100.00;99690.97;5044287;28;20421;-67
2023/11/28 04:30:50;;;;;;;22.33;14.43;;;;;;;0.64;100.00;99697.69;5062335;28;20032;-67
2023/11/28 04:33:15;;;;;;;20.08;14.05;;;;;;;0.68;100.00;99694.81;5045929;28;20047;-67
2023/11/28 04:35:42;;;;;;;18.75;13.73;;;;;;;0.69;100.00;99695.59;5040205;28;20144;-67
2023/11/28 04:38:08;;;;;;;20.95;14.05;;;;;;;0.71;100.00;99703.94;5040263;28;20435;-67
2023/11/28 04:40:34;;;;;;;24.00;14.55;;;;;;;0.68;100.00;99704.19;5040850;28;20116;-66
2023/11/28 04:43:00;;;;;;;20.65;14.00;;;;;;;0.64;100.00;99715.56;5041563;28;20118;-67
2023/11/28 04:45:26;;;;;;;22.55;15.32;;;;;;;0.65;100.00;99712.09;5046582;28;20025;-67
2023/11/28 04:47:52;;;;;;;23.50;15.50;;;;;;;0.69;100.00;99713.47;5023359;28;20116;-67
2023/11/28 04:50:17;;;;;;;24.33;15.93;;;;;;;0.68;100.00;99717.78;5037478;28;20048;-67
2023/11/28 04:52:43;;;;;;;26.77;16.85;;;;;;;0.64;100.00;99728.31;5039248;28;20035;-67
2023/11/28 04:55:08;;;;;;;32.88;19.25;;;;;;;0.57;100.00;99733.09;5021972;28;20030;-67
2023/11/28 04:57:36;;;;;;;30.23;18.67;;;;;;;0.61;100.00;99731.91;5043769;28;20033;-66
2023/11/28 05:00:06;;;;;;;29.05;18.20;;;;;;;0.63;100.00;99737.72;5045853;28;20045;-67
2023/11/28 05:02:32;;;;;;;29.75;17.50;;;;;;;0.66;100.00;99744.31;5044072;28;20041;-66
2023/11/28 05:04:57;;;;;;;30.70;18.10;;;;;;;0.70;100.00;99731.22;5042121;28;20033;-67
2023/11/28 05:07:24;;;;;;;28.70;18.00;;;;;;;0.65;100.00;99742.72;5038790;28;20044;-67
2023/11/28 05:09:49;;;;;;;30.90;18.65;;;;;;;0.59;100.00;99738.88;5029965;28;20419;-67
2023/11/28 05:12:15;;;;;;;24.20;15.57;;;;;;;0.62;100.00;99761.59;5030064;28;20032;-66
2023/11/28 05:14:40;;;;;;;31.08;16.25;;;;;;;0.57;100.00;99758.59;5027378;28;20471;-67
2023/11/28 05:17:06;;;;;;;25.65;14.20;;;;;;;0.53;100.00;99757.22;5063159;28;20033;-66
2023/11/28 05:19:32;;;;;;;40.22;19.58;;;;;;;0.50;100.00;99753.16;5026390;28;20033;-67
2023/11/28 05:21:58;;;;;;;31.70;16.83;;;;;;;0.48;100.00;99762.66;5042915;28;20071;-66
2023/11/28 05:24:24;;;;;;;21.83;14.13;;;;;;;0.58;100.00;99768.69;5041317;28;20025;-66
2023/11/28 05:26:52;;;;;;;31.08;18.45;;;;;;;0.51;100.00;99782.00;5026335;28;20036;-66
2023/11/28 05:29:18;;;;;;;24.48;14.85;;;;;;;0.50;100.00;99783.75;5044600;28;20055;-67
2023/11/28 05:31:44;;;;;;;19.98;13.40;;;;;;;0.48;100.00;99790.72;5038763;28;20037;-66
2023/11/28 05:34:09;;;;;;;21.15;12.50;;;;;;;0.46;100.00;99802.78;5028979;28;20445;-66
2023/11/28 05:36:35;;;;;;;21.10;13.68;;;;;;;0.50;100.00;99805.91;5026918;28;20596;-66
2023/11/28 05:39:00;;;;;;;22.90;13.20;;;;;;;0.55;100.00;99808.94;5041978;28;20083;-66
2023/11/28 05:41:26;;;;;;;27.23;13.88;;;;;;;0.55;100.00;99825.06;5040295;28;20049;-66
2023/11/28 05:43:53;;;;;;;19.42;13.00;;;;;;;0.56;100.00;99833.50;5027582;28;20047;-66
2023/11/28 05:46:19;;;;;;;19.88;13.02;;;;;;;0.54;100.00;99827.72;5040497;28;20041;-66
2023/11/28 05:48:45;;;;;;;19.15;13.00;;;;;;;0.56;100.00;99847.06;5046088;28;20041;-66
2023/11/28 05:51:13;;;;;;;23.25;12.80;;;;;;;0.55;100.00;99852.31;5028388;28;20531;-66
2023/11/28 05:53:38;;;;;;;21.75;13.13;;;;;;;0.57;100.00;99856.38;5040667;28;20040;-66
2023/11/28 05:56:04;;;;;;;18.63;12.70;;;;;;;0.55;100.00;99863.31;5029478;28;21861;-66
2023/11/28 05:58:29;;;;;;;19.63;12.55;;;;;;;0.58;100.00;99878.41;5041452;28;20116;-66
2023/11/28 06:00:55;;;;;;;19.38;12.27;;;;;;;0.56;100.00;99879.44;5044243;28;20040;-68
2023/11/28 06:03:21;;;;;;;20.20;13.85;;;;;;;0.50;100.00;99880.69;5039593;28;20048;-66
2023/11/28 06:05:47;;;;;;;22.02;13.75;;;;;;;0.49;100.00;99881.66;5029845;28;20119;-66
2023/11/28 06:08:13;;;;;;;21.88;13.63;;;;;;;0.56;100.00;99889.63;5042986;28;20035;-66
2023/11/28 06:10:40;;;;;;;22.00;13.50;;;;;;;0.56;100.00;99889.63;5041351;28;20033;-66
2023/11/28 06:13:06;;;;;;;19.17;12.32;;;;;;;0.49;100.00;99891.00;5035974;28;20043;-66
2023/11/28 06:15:32;;;;;;;21.83;12.30;;;;;;;0.58;100.00;99898.81;5027084;28;20523;-67
2023/11/28 06:17:57;;;;;;;19.00;11.77;;;;;;;0.47;100.00;99898.81;5038895;28;20036;-66
2023/11/28 06:20:23;;;;;;;22.35;11.07;;;;;;;0.43;100.00;99910.13;5026245;28;20029;-66
2023/11/28 06:22:49;;;;;;;20.85;11.02;;;;;;;0.56;100.00;99915.16;5044708;28;20033;-66
2023/11/28 06:25:14;;;;;;;18.77;10.50;;;;;;;0.41;100.00;99926.50;5042244;28;20049;-66
2023/11/28 06:27:39;;;;;;;16.13;10.00;;;;;;;0.47;100.00;99933.69;5042380;28;20066;-67
2023/11/28 06:30:06;;;;;;;13.85;8.98;;;;;;;0.38;100.00;99947.94;5040122;28;20029;-67
2023/11/28 06:32:33;;;;;;;18.23;7.93;;;;;;;0.31;100.00;99959.50;5038307;28;20395;-66
2023/11/28 06:34:59;;;;;;;14.48;7.60;;;;;;;0.27;100.00;99963.19;5021496;28;20041;-66
2023/11/28 06:37:24;;;;;;;14.55;7.22;;;;;;;0.22;100.00;99968.63;5039845;28;20029;-66
2023/11/28 06:39:51;;;;;;;15.32;8.00;;;;;;;0.23;100.00;99969.41;5044887;28;20040;-66
2023/11/28 06:42:17;;;;;;;13.52;7.43;;;;;;;0.19;100.00;99979.06;5022576;28;20131;-66
2023/11/28 06:44:43;;;;;;;12.38;7.07;;;;;;;0.16;100.00;99981.81;5040203;28;20051;-67
2023/11/28 06:47:09;;;;;;;11.57;6.80;;;;;;;0.16;100.00;99985.16;5043053;28;20029;-67
2023/11/28 06:49:34;;;;;;;10.98;6.60;;;;;;;0.06;100.00;99984.19;5038667;28;20403;-67
2023/11/28 06:52:01;;;;;;;8.40;5.72;;;;;;;0.04;100.00;100006.44;5039192;28;20041;-66
2023/11/28 06:54:30;;;;;;;11.23;5.88;;;;;;;-0.01;100.00;100024.59;5044076;28;20068;-66
2023/11/28 06:56:55;;;;;;;10.00;5.90;;;;;;;-0.01;100.00;100026.34;5044040;28;20041;-66
2023/11/28 06:59:21;;;;;;;11.75;5.38;;;;;;;0.00;100.00;100030.53;5030058;28;20524;-66
2023/11/28 07:01:48;;;;;;;10.07;5.53;;;;;;;-0.03;100.00;100031.53;5044693;28;20040;-66
2023/11/28 07:04:14;;;;;;;12.25;5.15;;;;;;;0.07;100.00;100039.34;5045252;28;20503;-66
2023/11/28 07:06:39;;;;;;;7.57;4.85;;;;;;;0.05;100.00;100038.66;5041240;28;20029;-66
2023/11/28 07:09:05;;;;;;;14.57;5.30;;;;;;;-0.05;100.00;100048.66;5042334;28;20040;-66
2023/11/28 07:11:30;;;;;;;9.27;4.85;;;;;;;-0.14;100.00;100044.22;5040306;28;20127;-67
2023/11/28 07:13:56;;;;;;;7.53;4.90;;;;;;;-0.12;100.00;100064.50;5042798;28;20032;-66
2023/11/28 07:16:22;;;;;;;9.10;5.60;;;;;;;-0.11;100.00;100074.59;5041817;28;20037;-66
2023/11/28 07:18:49;;;;;;;5.85;4.07;;;;;;;-0.11;100.00;100078.88;5043084;28;20040;-66
2023/11/28 07:21:14;;;;;;;6.75;3.78;;;;;;;-0.11;100.00;100086.53;5037823;28;20132;-66
2023/11/28 07:23:40;;;;;;;7.60;4.63;;;;;;;-0.15;100.00;100090.19;5039753;28;20108;-66
2023/11/28 07:26:06;;;;;;;8.68;4.50;;;;;;;-0.15;100.00;100083.38;5042342;28;20427;-66
2023/11/28 07:28:32;;;;;;;6.88;4.13;;;;;;;-0.23;100.00;100095.78;5041658;28;20028;-67
2023/11/28 07:30:58;;;;;;;9.55;4.93;;;;;;;-0.25;100.00;100093.34;5038923;28;20041;-67
2023/11/28 07:33:23;;;;;;;10.50;4.90;;;;;;;-0.31;100.00;100096.31;5039028;28;20052;-67
2023/11/28 07:35:50;;;;;;;13.73;5.32;;;;;;;-0.20;100.00;100104.06;5040042;28;20129;-66
2023/11/28 07:38:18;;;;;;;19.35;8.02;;;;;;;-0.20;100.00;100106.59;5038914;28;20033;-66
2023/11/28 07:40:43;;;;;;;11.93;5.75;;;;;;;-0.24;100.00;100112.03;5034361;28;20030;-66
2023/11/28 07:43:09;;;;;;;9.88;4.72;;;;;;;-0.27;100.00;100114.75;5038205;28;20042;-67
2023/11/28 07:45:36;;;;;;;19.63;8.82;;;;;;;-0.22;100.00;100123.72;5041115;28;20038;-66
2023/11/28 07:48:04;;;;;;;15.75;8.00;;;;;;;-0.17;100.00;100132.78;5041215;28;20025;-66
2023/11/28 07:50:29;;;;;;;10.68;6.05;;;;;;;-0.22;100.00;100135.66;5039122;28;20112;-66
2023/11/28 07:52:55;;;;;;;10.93;4.55;;;;;;;-0.35;100.00;100138.22;5040555;28;20056;-66
2023/11/28 07:55:20;;;;;;;8.00;4.40;;;;;;;-0.34;100.00;100141.56;5040458;28;20095;-66
2023/11/28 07:57:46;;;;;;;6.60;4.22;;;;;;;-0.38;100.00;100135.03;5042916;28;20403;-66
2023/11/28 08:00:12;;;;;;;7.00;3.88;;;;;;;-0.42;100.00;100139.53;5041852;28;20064;-67
2023/11/28 08:02:41;;;;;;;7.15;3.97;;;;;;;-0.44;100.00;100138.81;5048766;28;20037;-66
2023/11/28 08:05:07;;;;;;;9.35;4.47;;;;;;;-0.45;100.00;100144.84;5046558;28;20554;-67
2023/11/28 08:07:33;;;;;;;12.10;4.20;;;;;;;-0.40;100.00;100145.34;5045533;28;20036;-66
2023/11/28 08:10:05;;;;;;;9.20;4.40;;;;;;;-0.45;100.00;100152.50;5048178;28;20403;-66
2023/11/28 08:12:31;;;;;;;7.53;4.35;;;;;;;-0.46;100.00;100154.19;5043133;28;20112;-66
2023/11/28 08:14:57;;;;;;;10.63;4.50;;;;;;;-0.49;100.00;100163.78;5046417;28;20078;-66
2023/11/28 08:17:22;;;;;;;10.45;4.22;;;;;;;-0.41;100.00;100157.25;5045606;28;20029;-66
2023/11/28 08:19:48;;;;;;;8.40;4.80;;;;;;;-0.41;100.00;100169.19;5049811;28;20493;-67
2023/11/28 08:22:13;;;;;;;8.23;4.22;;;;;;;-0.41;100.00;100171.75;5033676;28;20033;-66
2023/11/28 08:24:39;;;;;;;7.95;4.07;;;;;;;-0.43;100.00;100178.69;5042245;28;20034;-67
2023/11/28 08:27:05;;;;;;;8.73;4.18;;;;;;;-0.42;100.00;100180.28;5046143;28;20064;-66
2023/11/28 08:29:30;;;;;;;6.75;3.90;;;;;;;-0.44;100.00;100189.78;5029246;28;20483;-67
2023/11/28 08:31:58;;;;;;;7.85;4.53;;;;;;;-0.32;100.00;100196.63;5047577;28;20107;-66
2023/11/28 08:34:24;;;;;;;8.38;4.68;;;;;;;-0.41;100.00;100200.56;5046755;23;20042;-72
2023/11/28 08:36:51;;;;;;;9.40;4.28;;;;;;;-0.35;100.00;100206.19;5009484;28;20466;-72
2023/11/28 08:39:16;;;;;;;9.10;4.57;;;;;;;-0.32;100.00;100211.06;5014198;28;20052;-73
2023/11/28 08:41:42;;;;;;;7.43;4.00;;;;;;;-0.34;100.00;100218.84;5009088;28;20463;-73
2023/11/28 08:44:08;;;;;;;8.95;4.28;;;;;;;-0.30;100.00;100227.06;5010489;28;20477;-72
2023/11/28 08:46:35;;;;;;;7.97;4.15;;;;;;;-0.30;100.00;100232.16;5010318;28;20415;-72
2023/11/28 08:49:01;;;;;;;7.82;4.30;;;;;;;-0.21;100.00;100229.03;5009993;28;20030;-73
2023/11/28 08:51:26;;;;;;;6.97;4.38;;;;;;;-0.23;100.00;100239.34;5010535;28;20036;-73
2023/11/28 08:53:52;;;;;;;9.95;4.22;;;;;;;-0.20;100.00;100241.69;5011230;28;20385;-73
2023/11/28 08:56:17;;;;;;;7.22;4.28;;;;;;;-0.21;100.00;100241.78;5010135;28;20034;-72
2023/11/28 08:58:43;;;;;;;7.18;4.07;;;;;;;-0.15;100.00;100246.50;5013703;28;20129;-73
2023/11/28 09:01:08;;;;;;;7.05;4.10;;;;;;;-0.15;100.00;100249.03;5020509;28;20022;-73
2023/11/28 09:03:33;;;;;;;10.32;4.65;;;;;;;-0.07;100.00;100258.72;4994353;28;20044;-73
2023/11/28 09:05:59;;;;;;;9.48;3.88;;;;;;;-0.07;100.00;100254.44;5010016;28;20076;-73
2023/11/28 09:08:24;;;;;;;9.52;4.50;;;;;;;0.02;100.00;100263.22;5012349;28;20046;-73
2023/11/28 09:10:50;;;;;;;8.57;4.70;;;;;;;0.01;100.00;100261.56;5010657;28;20125;-73
2023/11/28 09:13:15;;;;;;;8.75;4.15;;;;;;;0.06;100.00;100264.66;5009545;28;20707;-73
2023/11/28 09:15:41;;;;;;;7.53;4.20;;;;;;;0.05;100.00;100273.19;4997667;28;20041;-73
2023/11/28 09:18:06;;;;;;;11.23;4.50;;;;;;;0.04;100.00;100274.13;5012720;28;20025;-72
2023/11/28 09:20:32;;;;;;;9.15;4.35;;;;;;;0.03;100.00;100275.03;5015963;28;20983;-73
2023/11/28 09:22:57;;;;;;;7.85;4.50;;;;;;;0.05;100.00;100283.41;5001517;28;20128;-73
2023/11/28 09:25:23;;;;;;;6.95;4.40;;;;;;;0.07;100.00;100279.00;5008871;28;20034;-72
2023/11/28 09:27:49;;;;;;;8.07;4.38;;;;;;;0.10;100.00;100280.56;5013705;28;20049;-72
2023/11/28 09:30:15;;;;;;;7.38;4.25;;;;;;;0.19;100.00;100285.88;5004504;28;20046;-73
2023/11/28 09:32:41;;;;;;;11.65;5.25;;;;;;;0.33;100.00;100286.69;4998967;28;20135;-73
2023/11/28 09:35:08;;;;;;;10.18;5.55;;;;;;;0.40;100.00;100290.47;4992776;28;20030;-72
2023/11/28 09:37:35;;;;;;;10.38;5.45;;;;;;;0.56;100.00;100293.59;5007586;28;20539;-72
2023/11/28 09:40:01;;;;;;;10.88;5.32;;;;;;;0.63;100.00;100304.22;5012221;28;20542;-73
2023/11/28 09:42:31;;;;;;;10.25;5.43;;;;;;;0.60;100.00;100295.94;5016406;28;20033;-73
2023/11/28 09:45:02;;;;;;;10.18;5.28;;;;;;;0.60;100.00;100304.41;5013660;28;20038;-73
2023/11/28 09:47:33;;;;;;;9.23;6.22;;;;;;;0.60;100.00;100301.06;5005873;28;20046;-73
2023/11/28 09:50:00;;;;;;;12.40;6.13;;;;;;;0.67;100.00;100300.53;5010309;28;20632;-73
2023/11/28 09:52:29;;;;;;;9.70;5.90;;;;;;;0.82;100.00;100308.88;5006327;28;20022;-72
2023/11/28 09:54:55;;;;;;;9.02;5.07;;;;;;;0.77;100.00;100313.47;5011107;28;20076;-73
2023/11/28 09:57:22;;;;;;;11.20;5.97;;;;;;;0.79;100.00;100311.63;5013373;28;20665;-72
2023/11/28 09:59:49;;;;;;;9.00;4.95;;;;;;;0.94;100.00;100310.59;4997315;28;20498;-72
2023/11/28 10:02:15;;;;;;;10.43;4.95;;;;;;;0.89;100.00;100314.41;5009271;28;20496;-72
2023/11/28 10:04:42;;;;;;;10.25;5.00;;;;;;;0.81;100.00;100320.03;5003836;28;20034;-72
2023/11/28 10:07:09;;;;;;;8.63;4.97;;;;;;;0.72;100.00;100323.19;5014316;28;21231;-72
2023/11/28 10:09:36;;;;;;;12.32;5.50;;;;;;;0.73;100.00;100327.38;5009029;28;20026;-72
2023/11/28 10:12:06;;;;;;;9.25;4.93;;;;;;;0.75;100.00;100328.09;5011424;28;20090;-72
2023/11/28 10:14:32;;;;;;;12.38;5.30;;;;;;;0.77;100.00;100316.03;4995570;28;20183;-72
2023/11/28 10:16:57;;;;;;;10.25;5.50;;;;;;;0.77;100.00;100321.13;5002529;28;20042;-72
2023/11/28 10:19:23;;;;;;;8.82;4.88;;;;;;;0.81;100.00;100321.75;5006644;28;20557;-72
2023/11/28 10:21:49;;;;;;;9.13;4.40;;;;;;;0.87;100.00;100316.25;5012615;28;20119;-72
2023/11/28 10:24:14;;;;;;;9.48;4.47;;;;;;;0.84;100.00;100331.75;5009976;28;20037;-72
2023/11/28 10:26:40;;;;;;;9.45;4.22;;;;;;;0.86;99.52;100329.91;5008119;28;20088;-72
2023/11/28 10:29:06;;;;;;;6.07;3.65;;;;;;;0.93;97.52;100338.78;5012856;28;20083;-72
2023/11/28 10:31:39;;;;;;;5.10;3.28;;;;;;;0.91;93.15;100341.44;5010307;28;20129;-72
2023/11/28 10:34:08;;;;;;;7.72;3.25;;;;;;;1.04;91.27;100355.94;5009531;28;20030;-72
2023/11/28 10:36:41;;;;;;;4.18;2.90;;;;;;;0.94;89.73;100348.91;4997848;28;20033;-72
2023/11/28 10:39:08;;;;;;;6.38;3.00;;;;;;;0.93;88.78;100349.81;5009409;28;20033;-72
2023/11/28 10:41:34;;;;;;;8.80;3.08;;;;;;;0.95;87.32;100345.41;4987906;28;20048;-72
2023/11/28 10:44:00;;;;;;;8.77;3.10;;;;;;;1.05;88.93;100352.44;5009600;28;20530;-72
2023/11/28 10:46:28;;;;;;;6.60;2.92;;;;;;;1.03;90.84;100365.31;5009671;28;20042;-72
2023/11/28 10:48:55;;;;;;;7.00;3.22;;;;;;;0.97;90.34;100353.78;5014118;28;20067;-72
2023/11/28 10:51:22;;;;;;;4.32;2.90;;;;;;;1.10;90.35;100358.06;5011630;28;20037;-72
2023/11/28 10:53:54;;;;;;;5.68;2.50;;;;;;;1.04;87.33;100356.75;5007113;28;20029;-72
2023/11/28 10:56:21;;;;;;;3.53;2.05;;;;;;;1.05;85.75;100355.81;5013713;28;20037;-72
2023/11/28 10:58:47;;;;;;;7.82;2.28;;;;;;;1.11;86.17;100359.69;5007981;28;20037;-72
2023/11/28 11:01:15;;;;;;;3.75;1.85;;;;;;;1.24;86.82;100357.09;5008249;28;20065;-72
2023/11/28 11:03:42;;;;;;;5.15;3.08;;;;;;;1.29;83.88;100358.41;5004603;28;20029;-72
2023/11/28 11:06:08;;;;;;;7.53;4.35;;;;;;;1.24;84.56;100355.34;5002489;28;20037;-72
2023/11/28 11:08:34;;;;;;;42.50;14.90;;;;;;;1.22;84.18;100351.28;4993816;28;20033;-74
2023/11/28 11:11:01;;;;;;;14.07;7.72;;;;;;;1.20;85.86;100355.69;5006245;28;20583;-72
2023/11/28 11:13:41;;;;;;;9.15;3.72;;;;;;;1.31;87.42;100348.09;5015601;28;20064;-72